createdAt,value
2019-01-17T00:00:36.007Z,70.30
2019-01-17T00:02:11.702Z,70.14
2019-01-17T00:03:34.656Z,70.61
2019-01-17T00:04:58.261Z,71.14
2019-01-17T00:06:28.000Z,70.70
2019-01-17T00:07:51.695Z,70.83
2019-01-17T00:09:03.257Z,70.64
2019-01-17T00:10:30.940Z,70.47
2019-01-17T00:11:53.504Z,70.46
2019-01-17T00:13:16.424Z,70.69
2019-01-17T00:14:43.828Z,70.82
2019-01-17T00:16:14.730Z,70.66
2019-01-17T00:17:46.698Z,70.41
2019-01-17T00:19:12.383Z,70.40
2019-01-17T00:20:35.368Z,70.42
2019-01-17T00:21:56.942Z,70.44
2019-01-17T00:23:24.049Z,70.42
2019-01-17T00:24:39.607Z,70.43
2019-01-17T00:26:04.132Z,71.06
2019-01-17T00:27:34.013Z,71.37
2019-01-17T00:28:57.122Z,71.53
2019-01-17T00:30:21.345Z,72.16
2019-01-17T00:31:39.354Z,71.71
2019-01-17T00:32:54.827Z,72.14
2019-01-17T00:34:18.171Z,72.12
2019-01-17T00:35:42.297Z,72.14
2019-01-17T00:37:02.012Z,72.08
2019-01-17T00:38:26.350Z,72.19
2019-01-17T00:39:50.847Z,72.03
2019-01-17T00:41:21.008Z,72.27
2019-01-17T00:42:48.267Z,71.99
2019-01-17T00:44:18.165Z,72.16
2019-01-17T00:45:43.627Z,71.63
2019-01-17T00:47:22.084Z,72.39
2019-01-17T00:48:34.261Z,72.28
2019-01-17T00:49:58.391Z,72.24
2019-01-17T00:51:21.037Z,72.27
2019-01-17T00:52:56.313Z,72.40
2019-01-17T00:54:15.186Z,72.26
2019-01-17T00:55:38.126Z,72.59
2019-01-17T00:57:08.079Z,72.72
2019-01-17T00:58:30.635Z,72.87
2019-01-17T00:59:58.063Z,73.22
2019-01-17T01:01:10.807Z,73.16
2019-01-17T01:02:37.633Z,73.34
2019-01-17T01:04:05.237Z,73.03
2019-01-17T01:05:47.529Z,73.16
2019-01-17T01:07:13.661Z,73.20
2019-01-17T01:08:40.912Z,73.27
2019-01-17T01:10:03.451Z,74.12
2019-01-17T01:11:24.233Z,73.97
2019-01-17T01:12:47.305Z,73.77
2019-01-17T01:14:11.153Z,74.26
2019-01-17T01:15:38.141Z,75.04
2019-01-17T01:17:11.882Z,74.14
2019-01-17T01:18:32.574Z,74.28
2019-01-17T01:19:57.898Z,74.54
2019-01-17T01:21:16.592Z,74.58
2019-01-17T01:22:46.399Z,74.41
2019-01-17T01:24:16.597Z,74.32
2019-01-17T01:25:39.520Z,74.65
2019-01-17T01:27:18.622Z,74.68
2019-01-17T01:28:41.590Z,74.63
2019-01-17T01:30:05.382Z,74.44
2019-01-17T01:31:47.822Z,74.59
2019-01-17T01:33:12.036Z,74.35
2019-01-17T01:34:44.866Z,74.67
2019-01-17T01:36:14.513Z,74.58
2019-01-17T01:37:43.303Z,74.47
2019-01-17T01:39:13.159Z,74.40
2019-01-17T01:40:33.999Z,74.30
2019-01-17T01:41:58.232Z,74.10
2019-01-17T01:43:22.023Z,74.01
2019-01-17T01:44:53.602Z,74.32
2019-01-17T01:46:36.283Z,74.35
2019-01-17T01:48:10.356Z,74.42
2019-01-17T01:49:29.685Z,73.84
2019-01-17T01:50:53.105Z,74.15
2019-01-17T01:52:05.649Z,74.44
2019-01-17T01:53:11.044Z,74.42
2019-01-17T01:54:21.881Z,74.78
2019-01-17T01:55:23.011Z,74.73
2019-01-17T01:56:28.153Z,74.62
2019-01-17T01:57:33.206Z,74.90
2019-01-17T01:58:38.612Z,74.88
2019-01-17T01:59:43.889Z,75.25
2019-01-17T02:00:49.592Z,75.13
2019-01-17T02:01:54.944Z,75.47
2019-01-17T02:03:00.692Z,75.69
2019-01-17T02:04:07.163Z,75.51
2019-01-17T02:05:12.791Z,75.86
2019-01-17T02:06:18.203Z,76.04
2019-01-17T02:07:23.216Z,76.14
2019-01-17T02:08:28.409Z,75.89
2019-01-17T02:09:33.826Z,76.55
2019-01-17T02:10:38.492Z,75.93
2019-01-17T02:11:43.545Z,75.98
2019-01-17T02:12:48.553Z,76.11
2019-01-17T02:13:55.150Z,76.46
2019-01-17T02:15:00.868Z,76.23
2019-01-17T02:16:05.663Z,76.63
2019-01-17T02:17:11.128Z,76.63
2019-01-17T02:18:15.668Z,76.33
2019-01-17T02:19:21.670Z,76.84
2019-01-17T02:20:27.093Z,76.88
2019-01-17T02:21:32.694Z,76.46
2019-01-17T02:22:37.577Z,76.46
2019-01-17T02:23:42.695Z,76.68
2019-01-17T02:24:47.935Z,76.52
2019-01-17T02:25:53.142Z,77.12
2019-01-17T02:27:01.775Z,76.81
2019-01-17T02:28:07.133Z,76.45
2019-01-17T02:29:12.705Z,76.37
2019-01-17T02:30:17.992Z,76.34
2019-01-17T02:31:22.928Z,76.19
2019-01-17T02:32:27.733Z,76.02
2019-01-17T02:33:33.348Z,76.34
2019-01-17T02:34:38.988Z,76.13
2019-01-17T02:35:44.617Z,76.12
2019-01-17T02:36:50.375Z,76.15
2019-01-17T02:37:55.319Z,76.13
2019-01-17T02:39:00.902Z,76.16
2019-01-17T02:40:06.298Z,76.41
2019-01-17T02:41:11.671Z,76.17
2019-01-17T02:42:16.522Z,76.62
2019-01-17T02:43:21.692Z,76.81
2019-01-17T02:44:26.914Z,76.34
2019-01-17T02:45:31.778Z,76.46
2019-01-17T02:46:37.119Z,76.40
2019-01-17T02:47:42.133Z,76.61
2019-01-17T02:48:47.758Z,76.33
2019-01-17T02:49:52.297Z,76.72
2019-01-17T02:50:57.247Z,76.92
2019-01-17T02:52:02.161Z,76.98
2019-01-17T02:53:07.740Z,77.23
2019-01-17T02:54:12.628Z,77.28
2019-01-17T02:55:17.978Z,77.57
2019-01-17T02:56:23.017Z,77.63
2019-01-17T02:57:27.599Z,77.73
2019-01-17T02:58:32.479Z,77.68
2019-01-17T02:59:37.863Z,77.98
2019-01-17T03:00:42.820Z,77.88
2019-01-17T03:01:48.163Z,78.10
2019-01-17T03:02:53.497Z,77.96
2019-01-17T03:03:58.836Z,77.87
2019-01-17T03:05:03.494Z,78.22
2019-01-17T03:06:09.279Z,77.98
2019-01-17T03:07:14.146Z,77.94
2019-01-17T03:08:19.532Z,77.98
2019-01-17T03:09:24.604Z,78.08
2019-01-17T03:10:30.437Z,78.66
2019-01-17T03:11:36.045Z,78.73
2019-01-17T03:12:41.562Z,78.59
2019-01-17T03:13:47.678Z,78.56
2019-01-17T03:14:53.476Z,78.59
2019-01-17T03:15:58.338Z,78.76
2019-01-17T03:17:03.385Z,78.69
2019-01-17T03:18:08.752Z,78.51
2019-01-17T03:19:13.379Z,78.35
2019-01-17T03:20:18.709Z,78.47
2019-01-17T03:21:24.119Z,78.58
2019-01-17T03:22:29.274Z,78.69
2019-01-17T03:23:34.991Z,78.59
2019-01-17T03:24:43.086Z,78.69
2019-01-17T03:25:47.479Z,78.89
2019-01-17T03:26:52.976Z,78.65
2019-01-17T03:28:00.626Z,78.87
2019-01-17T03:29:05.595Z,78.72
2019-01-17T03:30:14.163Z,78.74
2019-01-17T03:31:19.143Z,78.64
2019-01-17T03:32:23.912Z,78.48
2019-01-17T03:33:29.420Z,79.14
2019-01-17T03:34:34.747Z,78.62
2019-01-17T03:35:40.120Z,78.57
2019-01-17T03:36:45.083Z,78.32
2019-01-17T03:37:49.986Z,78.45
2019-01-17T03:38:55.787Z,78.41
2019-01-17T03:40:00.961Z,78.46
2019-01-17T03:41:06.462Z,78.49
2019-01-17T03:42:12.222Z,78.44
2019-01-17T03:43:17.082Z,78.44
2019-01-17T03:44:22.376Z,79.14
2019-01-17T03:45:27.213Z,78.73
2019-01-17T03:46:32.328Z,78.40
2019-01-17T03:47:38.052Z,78.38
2019-01-17T03:48:43.807Z,78.45
2019-01-17T03:49:48.387Z,78.23
2019-01-17T03:50:54.020Z,78.26
2019-01-17T03:51:59.324Z,78.41
2019-01-17T03:53:04.372Z,78.46
2019-01-17T03:54:10.588Z,78.45
2019-01-17T03:55:17.888Z,78.44
2019-01-17T03:56:22.492Z,78.26
2019-01-17T03:57:27.357Z,78.32
2019-01-17T03:58:33.129Z,78.17
2019-01-17T03:59:39.246Z,78.05
2019-01-17T04:00:44.163Z,78.09
2019-01-17T04:01:49.118Z,78.35
2019-01-17T04:02:57.609Z,78.33
2019-01-17T04:04:02.565Z,78.58
2019-01-17T04:05:08.094Z,78.52
2019-01-17T04:06:12.949Z,79.34
2019-01-17T04:07:18.735Z,78.69
2019-01-17T04:08:23.754Z,78.79
2019-01-17T04:09:29.526Z,78.93
2019-01-17T04:10:37.773Z,78.58
2019-01-17T04:11:42.403Z,78.42
2019-01-17T04:12:46.914Z,78.36
2019-01-17T04:13:51.756Z,78.51
2019-01-17T04:14:57.160Z,78.84
2019-01-17T04:16:02.047Z,78.72
2019-01-17T04:17:07.287Z,78.44
2019-01-17T04:18:12.226Z,78.83
2019-01-17T04:19:17.818Z,78.78
2019-01-17T04:20:23.155Z,78.62
2019-01-17T04:21:28.187Z,78.55
2019-01-17T04:22:33.895Z,78.42
2019-01-17T04:23:38.848Z,78.31
2019-01-17T04:24:43.903Z,78.66
2019-01-17T04:25:50.353Z,78.81
2019-01-17T04:26:55.820Z,78.86
2019-01-17T04:28:01.049Z,78.76
2019-01-17T04:29:06.022Z,78.82
2019-01-17T04:30:16.569Z,78.60
2019-01-17T04:31:22.839Z,78.96
2019-01-17T04:32:28.517Z,78.45
2019-01-17T04:33:34.230Z,78.43
2019-01-17T04:34:39.058Z,78.56
2019-01-17T04:35:44.425Z,78.52
2019-01-17T04:36:49.856Z,78.42
2019-01-17T04:37:55.477Z,78.41
2019-01-17T04:39:00.784Z,78.45
2019-01-17T04:40:06.273Z,78.44
2019-01-17T04:41:12.094Z,78.29
2019-01-17T04:42:17.842Z,78.19
2019-01-17T04:43:22.482Z,78.49
2019-01-17T04:44:27.884Z,78.54
2019-01-17T04:45:33.278Z,78.35
2019-01-17T04:46:38.334Z,78.38
2019-01-17T04:47:43.005Z,78.71
2019-01-17T04:48:48.621Z,78.65
2019-01-17T04:49:54.417Z,78.78
2019-01-17T04:50:59.643Z,78.63
2019-01-17T04:52:04.705Z,78.68
2019-01-17T04:53:10.903Z,78.72
2019-01-17T04:54:16.243Z,78.84
2019-01-17T04:55:21.340Z,78.88
2019-01-17T04:56:26.776Z,79.08
2019-01-17T04:57:32.157Z,79.18
2019-01-17T04:58:37.203Z,79.11
2019-01-17T04:59:42.531Z,79.34
2019-01-17T05:00:47.461Z,79.56
2019-01-17T05:01:53.285Z,79.43
2019-01-17T05:02:58.326Z,79.36
2019-01-17T05:04:03.757Z,79.29
2019-01-17T05:05:08.798Z,79.51
2019-01-17T05:06:14.165Z,79.09
2019-01-17T05:07:22.743Z,79.37
2019-01-17T05:08:28.039Z,79.17
2019-01-17T05:09:33.324Z,79.10
2019-01-17T05:11:28.917Z,78.60
2019-01-17T05:12:34.211Z,78.56
2019-01-17T05:13:39.940Z,78.70
2019-01-17T05:14:45.710Z,78.73
2019-01-17T05:15:51.047Z,78.90
2019-01-17T05:16:57.752Z,82.27
2019-01-17T05:18:02.832Z,83.42
2019-01-17T05:19:08.109Z,83.23
2019-01-17T05:20:14.721Z,82.43
2019-01-17T05:21:23.124Z,83.44
2019-01-17T05:22:29.183Z,83.88
2019-01-17T05:23:34.495Z,83.96
2019-01-17T05:24:40.359Z,83.73
2019-01-17T05:25:45.723Z,83.08
2019-01-17T05:26:51.560Z,82.53
2019-01-17T05:27:56.489Z,82.10
2019-01-17T05:29:01.980Z,83.11
2019-01-17T05:30:08.828Z,83.47
2019-01-17T05:31:14.593Z,82.81
2019-01-17T05:32:19.402Z,83.62
2019-01-17T05:33:24.611Z,83.68
2019-01-17T05:34:29.939Z,82.98
2019-01-17T05:35:35.268Z,82.45
2019-01-17T05:36:40.951Z,81.27
2019-01-17T05:37:46.266Z,81.23
2019-01-17T05:38:53.894Z,81.20
2019-01-17T05:40:00.444Z,82.78
2019-01-17T05:41:05.443Z,81.26
2019-01-17T05:42:11.101Z,81.09
2019-01-17T05:43:16.087Z,81.23
2019-01-17T05:44:21.286Z,81.33
2019-01-17T05:45:26.679Z,80.70
2019-01-17T05:46:31.627Z,81.16
2019-01-17T05:47:36.968Z,80.82
2019-01-17T05:48:42.304Z,80.90
2019-01-17T05:49:48.087Z,80.94
2019-01-17T05:50:53.773Z,80.71
2019-01-17T05:51:59.118Z,80.18
2019-01-17T05:53:04.158Z,80.57
2019-01-17T05:54:09.619Z,80.66
2019-01-17T05:55:19.668Z,81.41
2019-01-17T05:56:22.131Z,80.83
2019-01-17T05:57:30.398Z,81.10
2019-01-17T05:58:36.197Z,81.61
2019-01-17T05:59:41.509Z,81.16
2019-01-17T06:00:47.040Z,82.06
2019-01-17T06:01:52.574Z,81.56
2019-01-17T06:02:57.902Z,81.23
2019-01-17T06:04:02.827Z,80.74
2019-01-17T06:05:07.852Z,80.48
2019-01-17T06:06:13.542Z,80.95
2019-01-17T06:07:19.300Z,80.73
2019-01-17T06:08:25.583Z,81.38
2019-01-17T06:09:31.359Z,81.03
2019-01-17T06:10:36.301Z,80.92
2019-01-17T06:11:41.619Z,80.63
2019-01-17T06:12:46.849Z,80.68
2019-01-17T06:13:51.953Z,80.46
2019-01-17T06:14:56.611Z,81.00
2019-01-17T06:16:01.639Z,81.10
2019-01-17T06:17:06.508Z,81.62
2019-01-17T06:18:11.931Z,80.95
2019-01-17T06:19:17.293Z,81.38
2019-01-17T06:20:22.549Z,81.71
2019-01-17T06:21:28.000Z,81.02
2019-01-17T06:22:33.300Z,80.67
2019-01-17T06:23:38.571Z,80.99
2019-01-17T06:24:43.914Z,81.56
2019-01-17T06:25:49.801Z,80.91
2019-01-17T06:26:55.392Z,80.32
2019-01-17T06:28:00.646Z,80.41
2019-01-17T06:29:06.181Z,79.77
2019-01-17T06:30:13.365Z,79.48
2019-01-17T06:31:18.361Z,78.95
2019-01-17T06:32:23.252Z,79.01
2019-01-17T06:33:29.098Z,78.69
2019-01-17T06:34:34.386Z,78.11
2019-01-17T06:35:39.835Z,78.13
2019-01-17T06:36:44.854Z,78.28
2019-01-17T06:37:50.210Z,78.25
2019-01-17T06:38:56.125Z,78.79
2019-01-17T06:40:00.959Z,78.50
2019-01-17T06:41:05.983Z,78.51
2019-01-17T06:42:11.306Z,78.42
2019-01-17T06:43:16.925Z,78.29
2019-01-17T06:44:21.996Z,78.49
2019-01-17T06:45:27.943Z,79.55
2019-01-17T06:46:33.401Z,78.99
2019-01-17T06:47:39.279Z,78.87
2019-01-17T06:48:44.597Z,78.97
2019-01-17T06:49:50.088Z,78.68
2019-01-17T06:50:55.676Z,78.80
2019-01-17T06:52:04.034Z,80.43
2019-01-17T06:53:09.502Z,80.73
2019-01-17T06:54:14.970Z,80.74
2019-01-17T06:55:20.464Z,80.28
2019-01-17T06:56:25.712Z,79.52
2019-01-17T06:57:31.016Z,79.84
2019-01-17T06:58:36.207Z,80.04
2019-01-17T06:59:41.625Z,79.27
2019-01-17T07:00:47.745Z,79.31
2019-01-17T07:01:53.087Z,79.15
2019-01-17T07:02:58.145Z,79.37
2019-01-17T07:04:03.107Z,79.02
2019-01-17T07:05:08.185Z,78.83
2019-01-17T07:06:12.847Z,78.63
2019-01-17T07:07:18.169Z,78.70
2019-01-17T07:08:23.270Z,78.69
2019-01-17T07:09:28.339Z,79.44
2019-01-17T07:10:33.539Z,78.96
2019-01-17T07:11:38.530Z,79.19
2019-01-17T07:12:44.144Z,78.77
2019-01-17T07:13:49.714Z,79.21
2019-01-17T07:14:55.610Z,79.01
2019-01-17T07:16:00.673Z,79.89
2019-01-17T07:17:05.930Z,80.13
2019-01-17T07:18:11.512Z,78.98
2019-01-17T07:19:17.864Z,78.97
2019-01-17T07:20:23.500Z,78.78
2019-01-17T07:21:29.405Z,78.70
2019-01-17T07:22:35.879Z,78.61
2019-01-17T07:23:40.775Z,78.15
2019-01-17T07:24:46.530Z,77.49
2019-01-17T07:25:51.962Z,77.57
2019-01-17T07:26:56.910Z,77.63
2019-01-17T07:28:02.368Z,77.11
2019-01-17T07:29:08.189Z,77.37
2019-01-17T07:30:19.278Z,77.47
2019-01-17T07:31:24.451Z,77.83
2019-01-17T07:32:33.550Z,77.80
2019-01-17T07:33:38.915Z,77.85
2019-01-17T07:34:44.388Z,78.43
2019-01-17T07:35:50.078Z,78.76
2019-01-17T07:36:58.293Z,78.24
2019-01-17T07:38:03.837Z,77.69
2019-01-17T07:39:14.866Z,77.45
2019-01-17T07:40:20.587Z,77.32
2019-01-17T07:41:26.130Z,77.82
2019-01-17T07:42:31.473Z,77.30
2019-01-17T07:43:37.030Z,77.13
2019-01-17T07:44:42.388Z,77.00
2019-01-17T07:45:47.379Z,77.08
2019-01-17T07:46:52.379Z,77.54
2019-01-17T07:47:57.969Z,77.49
2019-01-17T07:49:03.654Z,77.24
2019-01-17T07:50:16.624Z,77.14
2019-01-17T07:51:27.610Z,77.22
2019-01-17T07:52:36.893Z,77.49
2019-01-17T07:53:42.015Z,77.24
2019-01-17T07:54:48.836Z,77.07
2019-01-17T07:55:54.101Z,77.35
2019-01-17T07:56:59.233Z,77.05
2019-01-17T07:58:04.234Z,77.10
2019-01-17T07:59:10.204Z,77.72
2019-01-17T08:00:17.825Z,77.62
2019-01-17T08:01:22.800Z,76.93
2019-01-17T08:02:27.711Z,76.94
2019-01-17T08:03:33.354Z,77.17
2019-01-17T08:04:38.035Z,76.81
2019-01-17T08:05:44.982Z,76.43
2019-01-17T08:06:49.932Z,76.64
2019-01-17T08:07:55.742Z,77.08
2019-01-17T08:09:01.260Z,76.39
2019-01-17T08:10:08.295Z,76.04
2019-01-17T08:11:13.640Z,75.63
2019-01-17T08:12:20.946Z,75.54
2019-01-17T08:13:26.372Z,75.73
2019-01-17T08:14:31.399Z,75.86
2019-01-17T08:15:36.440Z,75.20
2019-01-17T08:16:47.498Z,75.06
2019-01-17T08:17:52.582Z,74.66
2019-01-17T08:18:58.154Z,74.34
2019-01-17T08:20:04.005Z,74.27
2019-01-17T08:21:11.786Z,74.19
2019-01-17T08:22:16.798Z,74.66
2019-01-17T08:23:21.748Z,74.37
2019-01-17T08:24:26.368Z,74.04
2019-01-17T08:25:31.759Z,73.99
2019-01-17T08:26:37.421Z,74.11
2019-01-17T08:27:42.376Z,73.77
2019-01-17T08:28:48.488Z,73.81
2019-01-17T08:29:56.674Z,73.96
2019-01-17T08:31:04.266Z,73.80
2019-01-17T08:32:09.257Z,74.00
2019-01-17T08:33:14.485Z,73.71
2019-01-17T08:34:19.342Z,74.19
2019-01-17T08:35:24.155Z,73.85
2019-01-17T08:36:29.407Z,74.13
2019-01-17T08:37:34.899Z,73.97
2019-01-17T08:38:40.767Z,73.89
2019-01-17T08:39:46.318Z,73.49
2019-01-17T08:40:51.744Z,73.78
2019-01-17T08:41:56.670Z,73.06
2019-01-17T08:43:02.020Z,73.10
2019-01-17T08:44:07.279Z,73.37
2019-01-17T08:45:12.604Z,73.13
2019-01-17T08:46:18.273Z,74.33
2019-01-17T08:47:23.204Z,74.76
2019-01-17T08:48:29.393Z,74.03
2019-01-17T08:49:35.096Z,73.74
2019-01-17T08:50:40.047Z,73.20
2019-01-17T08:51:47.327Z,73.19
2019-01-17T08:52:59.574Z,73.33
2019-01-17T08:54:04.432Z,73.95
2019-01-17T08:55:10.322Z,73.36
2019-01-17T08:56:15.629Z,73.31
2019-01-17T08:57:21.452Z,73.11
2019-01-17T08:58:26.458Z,72.95
2019-01-17T08:59:32.389Z,73.07
2019-01-17T09:01:21.558Z,73.14
2019-01-17T09:02:26.497Z,73.05
2019-01-17T09:03:31.927Z,72.99
2019-01-17T09:04:37.498Z,72.76
2019-01-17T09:05:42.024Z,72.91
2019-01-17T09:06:46.970Z,73.05
2019-01-17T09:07:52.790Z,72.71
2019-01-17T09:08:57.989Z,72.29
2019-01-17T09:10:02.964Z,72.05
2019-01-17T09:11:08.215Z,72.01
2019-01-17T09:12:13.136Z,72.51
2019-01-17T09:13:18.706Z,71.86
2019-01-17T09:14:23.668Z,72.29
2019-01-17T09:15:30.897Z,71.76
2019-01-17T09:16:36.317Z,71.79
2019-01-17T09:17:41.571Z,71.97
2019-01-17T09:18:46.717Z,72.09
2019-01-17T09:19:51.640Z,72.19
2019-01-17T09:20:56.754Z,71.60
2019-01-17T09:22:02.092Z,71.84
2019-01-17T09:23:07.381Z,71.81
2019-01-17T09:24:12.712Z,72.07
2019-01-17T09:25:18.921Z,72.32
2019-01-17T09:26:25.400Z,72.02
2019-01-17T09:27:34.200Z,71.81
2019-01-17T09:28:52.302Z,71.89
2019-01-17T09:29:59.704Z,71.42
2019-01-17T09:31:04.928Z,71.29
2019-01-17T09:32:10.249Z,71.47
2019-01-17T09:33:15.509Z,71.62
2019-01-17T09:34:21.159Z,71.41
2019-01-17T09:35:26.478Z,71.62
2019-01-17T09:36:31.416Z,71.70
2019-01-17T09:37:35.969Z,71.36
2019-01-17T09:38:41.138Z,71.78
2019-01-17T09:39:46.322Z,72.38
2019-01-17T09:40:55.074Z,72.88
2019-01-17T09:42:00.143Z,72.95
2019-01-17T09:43:04.828Z,72.82
2019-01-17T09:44:09.618Z,72.85
2019-01-17T09:45:15.030Z,72.95
2019-01-17T09:46:19.729Z,73.22
2019-01-17T09:47:24.987Z,72.61
2019-01-17T09:48:30.227Z,72.33
2019-01-17T09:49:35.976Z,71.84
2019-01-17T09:50:41.256Z,71.74
2019-01-17T09:51:46.592Z,72.09
2019-01-17T09:52:51.480Z,72.34
2019-01-17T09:53:58.191Z,72.40
2019-01-17T09:55:03.139Z,71.54
2019-01-17T09:56:08.151Z,71.45
2019-01-17T09:57:16.586Z,71.57
2019-01-17T09:58:21.084Z,72.00
2019-01-17T09:59:26.341Z,71.89
2019-01-17T10:00:32.438Z,71.98
2019-01-17T10:01:37.664Z,72.11
2019-01-17T10:02:42.483Z,72.02
2019-01-17T10:03:48.254Z,71.77
2019-01-17T10:04:53.498Z,71.57
2019-01-17T10:05:58.967Z,71.52
2019-01-17T10:07:03.896Z,71.98
2019-01-17T10:08:09.148Z,71.68
2019-01-17T10:09:14.418Z,71.86
2019-01-17T10:10:19.430Z,72.24
2019-01-17T10:11:24.386Z,72.53
2019-01-17T10:12:29.619Z,72.76
2019-01-17T10:13:35.560Z,73.30
2019-01-17T10:14:40.420Z,73.77
2019-01-17T10:16:05.621Z,74.03
2019-01-17T10:17:20.763Z,74.57
2019-01-17T10:18:51.120Z,73.67
2019-01-17T10:20:36.881Z,73.82
2019-01-17T10:22:08.351Z,73.93
2019-01-17T10:23:53.035Z,73.62
2019-01-17T10:25:57.299Z,72.95
2019-01-17T10:27:28.467Z,73.33
2019-01-17T10:29:14.377Z,73.37
2019-01-17T10:30:55.467Z,73.09
2019-01-17T10:32:35.759Z,73.03
2019-01-17T10:33:51.364Z,73.22
2019-01-17T10:35:21.719Z,74.76
2019-01-17T10:37:13.721Z,74.49
2019-01-17T10:38:46.443Z,73.58
2019-01-17T10:40:40.280Z,74.32
2019-01-17T10:42:11.584Z,75.45
2019-01-17T10:43:51.947Z,76.18
2019-01-17T10:45:25.620Z,75.26
2019-01-17T10:47:05.790Z,74.52
2019-01-17T10:49:03.863Z,75.23
2019-01-17T10:50:29.346Z,75.83
2019-01-17T10:52:03.647Z,75.32
2019-01-17T10:53:49.918Z,75.79
2019-01-17T10:55:25.990Z,75.20
2019-01-17T10:57:14.024Z,76.49
2019-01-17T10:58:29.926Z,76.73
2019-01-17T11:00:08.316Z,77.48
2019-01-17T11:02:08.033Z,77.71
2019-01-17T11:04:09.946Z,76.72
2019-01-17T11:05:31.315Z,76.48
2019-01-17T11:06:52.906Z,76.05
2019-01-17T11:08:59.555Z,75.94
2019-01-17T11:10:41.859Z,75.83
2019-01-17T11:12:15.888Z,76.35
2019-01-17T11:13:43.132Z,75.81
2019-01-17T11:15:24.610Z,75.77
2019-01-17T11:17:04.739Z,74.72
2019-01-17T11:18:43.802Z,74.68
2019-01-17T11:20:06.752Z,74.69
2019-01-17T11:21:54.588Z,75.55
2019-01-17T11:23:33.089Z,74.36
2019-01-17T11:25:16.293Z,74.29
2019-01-17T11:26:45.251Z,74.71
2019-01-17T11:28:26.977Z,75.05
2019-01-17T11:30:11.471Z,74.63
2019-01-17T11:31:39.117Z,74.56
2019-01-17T11:33:14.879Z,74.84
2019-01-17T11:34:58.526Z,74.87
2019-01-17T11:36:33.833Z,75.27
2019-01-17T11:38:13.525Z,76.02
2019-01-17T11:39:33.037Z,75.92
2019-01-17T11:41:19.075Z,76.21
2019-01-17T11:43:07.561Z,75.80
2019-01-17T11:44:50.764Z,76.81
2019-01-17T11:46:35.061Z,76.23
2019-01-17T11:48:10.898Z,76.21
2019-01-17T11:49:46.269Z,76.30
2019-01-17T11:51:03.885Z,77.30
2019-01-17T11:53:01.362Z,76.39
2019-01-17T11:54:35.837Z,76.91
2019-01-17T11:55:59.260Z,76.46
2019-01-17T11:57:26.581Z,76.08
2019-01-17T11:59:21.996Z,76.29
2019-01-17T12:00:54.869Z,76.60
2019-01-17T12:02:49.385Z,76.77
2019-01-17T12:04:26.967Z,76.93
2019-01-17T12:05:31.884Z,76.16
2019-01-17T12:06:37.066Z,76.89
2019-01-17T12:07:42.649Z,76.14
2019-01-17T12:08:47.877Z,75.65
2019-01-17T12:09:53.499Z,75.87
2019-01-17T12:10:59.065Z,76.18
2019-01-17T12:12:04.043Z,76.37
2019-01-17T12:13:09.907Z,76.44
2019-01-17T12:14:14.880Z,77.29
2019-01-17T12:15:19.879Z,77.19
2019-01-17T12:16:24.722Z,76.66
2019-01-17T12:17:29.280Z,76.88
2019-01-17T12:18:33.834Z,75.56
2019-01-17T12:19:39.004Z,75.22
2019-01-17T12:20:43.807Z,74.96
2019-01-17T12:21:50.473Z,74.69
2019-01-17T12:22:55.782Z,74.80
2019-01-17T12:24:00.591Z,73.54
2019-01-17T12:25:06.147Z,73.79
2019-01-17T12:26:11.372Z,72.68
2019-01-17T12:27:16.633Z,72.68
2019-01-17T12:28:21.577Z,71.87
2019-01-17T12:29:26.463Z,72.37
2019-01-17T12:30:31.805Z,72.66
2019-01-17T12:31:37.170Z,72.36
2019-01-17T12:32:42.362Z,72.99
2019-01-17T12:33:47.567Z,73.43
2019-01-17T12:34:52.847Z,73.58
2019-01-17T12:35:57.836Z,73.80
2019-01-17T12:37:03.094Z,74.23
2019-01-17T12:38:07.998Z,73.81
2019-01-17T12:39:14.044Z,74.14
2019-01-17T12:40:18.874Z,74.00
2019-01-17T12:41:24.149Z,73.96
2019-01-17T12:42:29.765Z,73.83
2019-01-17T12:43:34.690Z,73.64
2019-01-17T12:44:39.648Z,74.12
2019-01-17T12:45:44.950Z,73.97
2019-01-17T12:46:50.774Z,74.29
2019-01-17T12:47:57.179Z,74.32
2019-01-17T12:49:02.591Z,74.27
2019-01-17T12:50:16.844Z,73.92
2019-01-17T12:51:22.429Z,74.33
2019-01-17T12:52:27.292Z,73.18
2019-01-17T12:53:33.156Z,72.72
2019-01-17T12:54:38.107Z,72.98
2019-01-17T12:55:42.874Z,72.08
2019-01-17T12:56:53.874Z,71.99
2019-01-17T12:57:55.096Z,72.42
2019-01-17T12:59:00.590Z,72.22
2019-01-17T13:00:07.831Z,72.72
2019-01-17T13:01:12.430Z,72.57
2019-01-17T13:02:17.336Z,73.82
2019-01-17T13:03:22.701Z,73.15
2019-01-17T13:04:27.524Z,73.01
2019-01-17T13:05:32.678Z,72.95
2019-01-17T13:06:37.508Z,73.25
2019-01-17T13:07:42.841Z,73.28
2019-01-17T13:08:48.370Z,74.23
2019-01-17T13:09:53.175Z,74.06
2019-01-17T13:10:58.174Z,73.75
2019-01-17T13:12:02.783Z,73.61
2019-01-17T13:13:08.014Z,73.62
2019-01-17T13:14:12.952Z,73.64
2019-01-17T13:15:18.374Z,73.64
2019-01-17T13:16:23.555Z,73.09
2019-01-17T13:17:28.863Z,72.80
2019-01-17T13:18:34.038Z,72.94
2019-01-17T13:19:39.196Z,74.23
2019-01-17T13:20:44.040Z,74.17
2019-01-17T13:21:48.891Z,74.85
2019-01-17T13:22:53.984Z,73.74
2019-01-17T13:24:01.783Z,73.96
2019-01-17T13:25:08.223Z,74.53
2019-01-17T13:26:13.350Z,74.03
2019-01-17T13:27:19.138Z,74.17
2019-01-17T13:28:24.009Z,74.82
2019-01-17T13:29:28.797Z,73.46
2019-01-17T13:30:34.079Z,73.37
2019-01-17T13:31:38.927Z,73.44
2019-01-17T13:32:43.951Z,73.80
2019-01-17T13:33:49.155Z,73.54
2019-01-17T13:34:53.903Z,74.20
2019-01-17T13:35:59.065Z,74.30
2019-01-17T13:37:03.639Z,74.26
2019-01-17T13:38:08.944Z,74.22
2019-01-17T13:39:14.065Z,74.42
2019-01-17T13:40:21.142Z,74.06
2019-01-17T13:41:25.936Z,74.46
2019-01-17T13:42:31.241Z,74.93
2019-01-17T13:43:36.501Z,74.65
2019-01-17T13:44:41.099Z,74.13
2019-01-17T13:45:45.942Z,73.98
2019-01-17T13:46:50.800Z,73.94
2019-01-17T13:47:55.755Z,73.66
2019-01-17T13:49:00.562Z,73.67
2019-01-17T13:50:05.764Z,73.69
2019-01-17T13:51:10.828Z,74.05
2019-01-17T13:52:16.066Z,73.77
2019-01-17T13:53:20.660Z,73.60
2019-01-17T13:54:25.211Z,73.60
2019-01-17T13:55:30.124Z,73.31
2019-01-17T13:56:35.262Z,73.34
2019-01-17T13:57:40.611Z,72.62
2019-01-17T13:58:46.901Z,72.79
2019-01-17T13:59:51.766Z,73.17
2019-01-17T14:00:57.010Z,73.46
2019-01-17T14:02:01.858Z,73.97
2019-01-17T14:03:07.074Z,72.65
2019-01-17T14:04:12.043Z,71.87
2019-01-17T14:05:17.301Z,72.94
2019-01-17T14:06:23.127Z,72.62
2019-01-17T14:07:27.965Z,72.62
2019-01-17T14:08:32.831Z,72.67
2019-01-17T14:09:37.692Z,72.16
2019-01-17T14:10:42.498Z,72.51
2019-01-17T14:11:47.369Z,72.58
2019-01-17T14:12:52.305Z,72.42
2019-01-17T14:13:57.590Z,71.93
2019-01-17T14:15:02.509Z,72.37
2019-01-17T14:16:08.359Z,71.55
2019-01-17T14:17:13.728Z,71.46
2019-01-17T14:18:19.005Z,72.16
2019-01-17T14:19:23.890Z,72.02
2019-01-17T14:20:28.710Z,72.22
2019-01-17T14:21:33.711Z,72.64
2019-01-17T14:22:38.988Z,73.16
2019-01-17T14:23:44.670Z,73.23
2019-01-17T14:24:49.614Z,73.41
2019-01-17T14:25:54.767Z,73.33
2019-01-17T14:26:59.608Z,73.24
2019-01-17T14:28:04.835Z,73.32
2019-01-17T14:29:09.668Z,73.35
2019-01-17T14:30:17.722Z,73.94
2019-01-17T14:31:23.280Z,74.20
2019-01-17T14:32:28.439Z,74.23
2019-01-17T14:33:33.590Z,74.57
2019-01-17T14:34:38.565Z,74.37
2019-01-17T14:35:44.088Z,73.59
2019-01-17T14:36:49.193Z,74.20
2019-01-17T14:37:54.357Z,74.18
2019-01-17T14:38:59.512Z,73.62
2019-01-17T14:40:04.420Z,73.87
2019-01-17T14:41:10.094Z,73.95
2019-01-17T14:42:15.704Z,73.97
2019-01-17T14:43:20.939Z,73.98
2019-01-17T14:44:27.256Z,73.93
2019-01-17T14:45:31.875Z,73.97
2019-01-17T14:46:37.090Z,73.99
2019-01-17T14:47:42.229Z,73.02
2019-01-17T14:48:47.852Z,72.84
2019-01-17T14:49:52.349Z,72.66
2019-01-17T14:50:57.503Z,72.34
2019-01-17T14:52:02.438Z,71.76
2019-01-17T14:53:07.263Z,71.59
2019-01-17T14:54:12.956Z,71.94
2019-01-17T14:55:18.630Z,72.61
2019-01-17T14:56:23.193Z,72.53
2019-01-17T14:57:28.206Z,72.54
2019-01-17T14:58:33.845Z,71.68
2019-01-17T14:59:38.980Z,71.38
2019-01-17T15:00:44.239Z,72.26
2019-01-17T15:01:49.523Z,72.42
2019-01-17T15:02:54.359Z,71.31
2019-01-17T15:03:59.668Z,71.78
2019-01-17T15:05:04.456Z,72.05
2019-01-17T15:06:09.447Z,72.55
2019-01-17T15:07:14.482Z,72.27
2019-01-17T15:08:20.177Z,72.89